• Join FlightAware (Why Join?)
  • Login
  • US Flag 
10:40PM EDT


 

Airport Tracker/Info


-or-


 

Live Flight TrackerFlight Track Log ✈ N319EE ✈ 01-Oct-2013 ✈ KROC - KBGM

Flight Track Log - Related Links

Times and Time Zones

All times are in EDT time to prevent confusion due to time zone crossing. See the N319EE flight status page for this flight to view local times or setup timezone preferences in your user account.

Time Position Orientation Groundspeed Altitude Reporting Facility
EDT Latitude Longitude Course Direction KTS MPH feet Rate Location/Type
08:50AM 43.0794 -77.7006 208° Southwest 181 208 3,200  Level Cleveland Center
08:50AM 43.0794 -77.7006 208° Southwest 180 207 11,000 1,980 Climbing Cleveland Center
08:51AM 43.0658 -77.6394 107° East 185 213 5,300 -1,680 Descending Cleveland Center
08:52AM 43.0483 -77.5667 108° East 197 227 7,600 1,980 Climbing Cleveland Center
08:53AM 43.0325 -77.4992 108° East 188 216 9,500 1,620 Climbing Cleveland Center
08:54AM 42.9881 -77.4206 128° Southeast 215 247 11,000 720 Climbing Cleveland Center
08:55AM 42.9439 -77.3392 127° Southeast 263 303 11,000  Level Cleveland Center
08:56AM 42.8978 -77.2553 127° Southeast 277 319 11,000  Level Cleveland Center
08:57AM 42.8547 -77.1714 125° Southeast 273 314 11,000  Level Cleveland Center
08:58AM 42.8097 -77.0869 126° Southeast 276 318 11,000  Level Cleveland Center
08:59AM 42.7558 -76.9856 126° Southeast 278 320 11,000 -60 Level Cleveland Center
09:00AM 42.7106 -76.9017 126° Southeast 276 318 10,900 -60 Descending Cleveland Center
09:01AM 42.6656 -76.8181 126° Southeast 276 318 10,900  Level Cleveland Center
09:02AM 42.6206 -76.7350 126° Southeast 274 315 10,900 -120 Level Cleveland Center
09:03AM 42.5939 -76.6903 129° Southeast 269 310 10,800 -780 Descending New York Center
09:04AM 42.5464 -76.6017 126° Southeast 274 315 9,700 -900 Descending New York Center
09:05AM 42.5008 -76.5103 124° Southeast 281 323 9,000 -360 Descending New York Center
09:06AM 42.4611 -76.4253 122° Southeast 281 323 9,000  Level New York Center
09:07AM 42.4172 -76.3431 126° Southeast 276 318 9,000 -180 Level New York Center
09:08AM 42.3775 -76.2581 122° Southeast 276 318 8,700 -1,140 Descending New York Center
09:08AM 42.3542 -76.2081 122° Southeast 270 311 7,200 -2,340 Descending Cleveland Center
09:09AM 42.3131 -76.1294 125° Southeast 262 302 4,900 -1,980 Descending Cleveland Center
09:10AM 42.2878 -76.0789 124° Southeast 212 244 3,200 -1,020 Descending Cleveland Center
09:11AM 42.2594 -76.0292 128° Southeast 199 229 2,900 -300 Descending Cleveland Center